Time;durP1;ratioP1;P1;durP2;ratioP2;P2;SDS_P1;SDS_P2;PMS_P1;PMS_P2;Temp;Humidity;BMP_temperature;BMP_pressure;BME280_temperature;BME280_humidity;BME280_pressure;Samples;Min_cycle;Max_cycle;Signal;HPM_P1;HPM_P2
2024/03/01 00:00:24;;;;;;;0.77;0.77;;;;;;;0.51;100.00;98277.66;5039539;28;20029;-75
2024/03/01 00:02:50;;;;;;;0.68;0.68;;;;;;;0.46;100.00;98284.47;5039517;28;20048;-75
2024/03/01 00:05:16;;;;;;;0.73;0.73;;;;;;;0.39;100.00;98284.31;5056062;28;20028;-75
2024/03/01 00:07:41;;;;;;;0.57;0.57;;;;;;;0.30;100.00;98286.19;5039456;28;20060;-76
2024/03/01 00:10:07;;;;;;;0.60;0.60;;;;;;;0.17;100.00;98283.25;5055937;28;20039;-75
2024/03/01 00:12:34;;;;;;;0.50;0.50;;;;;;;0.08;100.00;98274.53;5039909;28;20036;-75
2024/03/01 00:15:00;;;;;;;0.63;0.63;;;;;;;0.04;100.00;98273.22;5072183;28;20085;-75
2024/03/01 00:17:25;;;;;;;0.75;0.75;;;;;;;0.01;100.00;98275.38;5039074;28;20119;-76
2024/03/01 00:19:51;;;;;;;0.95;0.82;;;;;;;0.02;100.00;98271.72;5039351;28;20028;-76
2024/03/01 00:22:16;;;;;;;1.60;0.98;;;;;;;0.01;100.00;98265.63;5056123;28;20032;-76
2024/03/01 00:24:42;;;;;;;0.55;0.55;;;;;;;-0.05;100.00;98253.94;5039298;28;20389;-76
2024/03/01 00:27:08;;;;;;;0.70;0.70;;;;;;;0.02;100.00;98266.44;5055800;28;20055;-76
2024/03/01 00:29:34;;;;;;;1.13;0.80;;;;;;;0.04;100.00;98257.34;5026370;28;20071;-76
2024/03/01 00:32:00;;;;;;;0.70;0.70;;;;;;;0.09;100.00;98252.38;5043041;28;20035;-76
2024/03/01 00:34:25;;;;;;;2.78;0.88;;;;;;;0.18;100.00;98253.16;5043504;28;20449;-76
2024/03/01 00:36:51;;;;;;;0.60;0.60;;;;;;;0.20;100.00;98244.09;5043247;28;20434;-76
2024/03/01 00:39:17;;;;;;;0.55;0.55;;;;;;;0.31;100.00;98252.63;5026735;28;20037;-76
2024/03/01 00:41:43;;;;;;;0.60;0.60;;;;;;;0.37;100.00;98247.50;5043124;28;20036;-76
2024/03/01 00:44:09;;;;;;;0.80;0.80;;;;;;;0.41;100.00;98256.72;5043077;28;20024;-76
2024/03/01 00:46:36;;;;;;;0.70;0.70;;;;;;;0.46;100.00;98253.56;5060373;28;20040;-75
2024/03/01 00:49:02;;;;;;;0.50;0.50;;;;;;;0.52;100.00;98262.63;5059622;28;20078;-76
2024/03/01 00:51:27;;;;;;;0.50;0.50;;;;;;;0.55;100.00;98263.09;5059038;28;20099;-75
2024/03/01 00:53:53;;;;;;;0.55;0.55;;;;;;;0.56;100.00;98259.47;5042903;28;20135;-75
2024/03/01 00:56:19;;;;;;;0.50;0.50;;;;;;;0.47;100.00;98246.44;5042784;28;20028;-76
2024/03/01 00:58:45;;;;;;;0.50;0.50;;;;;;;0.48;100.00;98250.72;5059296;28;20097;-76
2024/03/01 01:01:11;;;;;;;0.63;0.63;;;;;;;0.51;100.00;98245.94;5058906;28;20085;-76
2024/03/01 01:03:37;;;;;;;0.50;0.50;;;;;;;0.57;100.00;98247.88;5042730;28;20067;-75
2024/03/01 01:06:03;;;;;;;0.50;0.50;;;;;;;0.61;100.00;98243.91;5042635;28;20032;-75
2024/03/01 01:08:28;;;;;;;0.60;0.60;;;;;;;0.68;100.00;98251.94;5058792;28;20028;-75
2024/03/01 01:10:54;;;;;;;0.55;0.55;;;;;;;0.75;100.00;98252.91;5042338;28;20025;-75
2024/03/01 01:13:20;;;;;;;0.50;0.50;;;;;;;0.80;100.00;98253.22;5042514;28;20043;-75
2024/03/01 01:15:45;;;;;;;0.60;0.60;;;;;;;0.91;100.00;98253.81;5042465;28;20029;-75
2024/03/01 01:18:12;;;;;;;0.63;0.63;;;;;;;1.03;100.00;98261.16;5058563;28;20020;-75
2024/03/01 01:20:38;;;;;;;2.10;0.60;;;;;;;1.22;100.00;98244.00;5074748;28;20051;-75
2024/03/01 01:23:04;;;;;;;1.10;0.95;;;;;;;1.35;100.00;98231.94;5041634;28;20564;-75
2024/03/01 01:25:29;;;;;;;0.50;0.50;;;;;;;1.40;100.00;98227.75;5041158;28;20486;-75
2024/03/01 01:27:55;;;;;;;0.80;0.80;;;;;;;1.46;100.00;98219.13;5040970;28;20122;-76
2024/03/01 01:30:21;;;;;;;0.50;0.50;;;;;;;1.52;100.00;98225.53;5057840;28;20035;-75
2024/03/01 01:32:46;;;;;;;0.70;0.70;;;;;;;1.59;100.00;98229.09;5041091;28;20040;-75
2024/03/01 01:35:12;;;;;;;0.88;0.63;;;;;;;1.66;100.00;98235.31;5057469;28;20105;-75
2024/03/01 01:37:37;;;;;;;0.50;0.50;;;;;;;1.70;100.00;98241.09;5057476;28;20032;-75
2024/03/01 01:40:05;;;;;;;0.57;0.57;;;;;;;1.73;100.00;98244.19;5041072;28;20032;-75
2024/03/01 01:42:32;;;;;;;0.50;0.50;;;;;;;1.74;100.00;98251.13;5073557;28;20478;-75
2024/03/01 01:44:57;;;;;;;0.60;0.60;;;;;;;1.75;100.00;98254.59;5073915;28;20358;-75
2024/03/01 01:47:23;;;;;;;1.00;0.60;;;;;;;1.71;100.00;98246.19;5040754;28;20032;-75
2024/03/01 01:49:49;;;;;;;1.65;0.90;;;;;;;1.69;100.00;98250.88;5056751;28;20033;-75
2024/03/01 01:52:15;;;;;;;6.32;0.93;;;;;;;1.65;100.00;98254.84;5040110;28;20031;-75
2024/03/01 01:54:42;;;;;;;0.50;0.50;;;;;;;1.63;100.00;98258.69;5040591;28;20036;-75
2024/03/01 01:57:09;;;;;;;0.90;0.60;;;;;;;1.62;100.00;98263.16;5058065;28;20468;-75
2024/03/01 01:59:36;;;;;;;0.77;0.50;;;;;;;1.59;100.00;98257.38;5057015;28;20398;-75
2024/03/01 02:02:03;;;;;;;0.50;0.50;;;;;;;1.63;100.00;98258.69;5056915;28;20028;-75
2024/03/01 02:04:30;;;;;;;0.63;0.63;;;;;;;1.62;100.00;98260.53;5040768;28;20032;-75
2024/03/01 02:06:56;;;;;;;0.50;0.50;;;;;;;1.63;100.00;98256.84;5040394;28;20059;-75
2024/03/01 02:09:22;;;;;;;0.50;0.50;;;;;;;1.57;100.00;98254.94;5040440;28;20120;-75
2024/03/01 02:11:48;;;;;;;0.50;0.50;;;;;;;1.54;100.00;98252.66;5040253;28;20025;-75
2024/03/01 02:14:14;;;;;;;0.70;0.70;;;;;;;1.48;100.00;98251.53;5040336;28;20039;-75
2024/03/01 02:16:40;;;;;;;2.08;0.65;;;;;;;1.40;100.00;98242.84;5073323;28;20032;-75
2024/03/01 02:19:17;;;;;;;1.85;1.13;;;;;;;1.38;100.00;98244.84;5073642;28;20032;-75
2024/03/01 02:22:02;;;;;;;0.50;0.50;;;;;;;1.33;100.00;98236.63;4982441;28;2613319;-75
2024/03/01 02:24:28;;;;;;;0.55;0.55;;;;;;;1.27;100.00;98231.03;5041139;28;20033;-75
2024/03/01 02:26:57;;;;;;;0.50;0.50;;;;;;;1.30;100.00;98225.38;5057264;28;20031;-75
2024/03/01 02:29:22;;;;;;;0.40;0.40;;;;;;;1.31;100.00;98231.50;5074815;28;20066;-75
2024/03/01 02:31:48;;;;;;;0.80;0.80;;;;;;;1.38;100.00;98229.78;5040961;28;20070;-75
2024/03/01 02:34:14;;;;;;;0.60;0.60;;;;;;;1.41;100.00;98225.97;5040733;28;20519;-75
2024/03/01 02:36:40;;;;;;;0.50;0.50;;;;;;;1.44;100.00;98225.59;5057566;28;20465;-75
2024/03/01 02:39:16;;;;;;;4.05;0.82;;;;;;;1.44;100.00;98221.13;5040664;28;20028;-75
2024/03/01 02:41:46;;;;;;;0.50;0.50;;;;;;;1.40;100.00;98229.59;5058963;28;20063;-75
2024/03/01 02:44:12;;;;;;;0.50;0.50;;;;;;;1.36;100.00;98223.03;5057177;28;20032;-75
2024/03/01 02:46:38;;;;;;;0.50;0.50;;;;;;;1.35;100.00;98216.06;5057466;28;20040;-75
2024/03/01 02:49:03;;;;;;;0.93;0.90;;;;;;;1.32;100.00;98217.25;5040568;28;20032;-75
2024/03/01 02:51:29;;;;;;;0.80;0.68;;;;;;;1.22;100.00;98217.50;5039406;28;20074;-75
2024/03/01 02:53:55;;;;;;;2.88;0.60;;;;;;;1.08;100.00;98215.63;5023289;28;20032;-75
2024/03/01 02:56:21;;;;;;;0.52;0.52;;;;;;;0.94;100.00;98219.06;5040258;28;20127;-75
2024/03/01 02:58:47;;;;;;;0.60;0.60;;;;;;;0.85;100.00;98215.66;5040430;28;20028;-75
2024/03/01 03:01:16;;;;;;;2.17;1.38;;;;;;;0.76;100.00;98212.22;5057397;28;20118;-75
2024/03/01 03:03:42;;;;;;;0.60;0.60;;;;;;;0.72;100.00;98208.28;5073098;28;20036;-75
2024/03/01 03:06:08;;;;;;;5.95;1.13;;;;;;;0.75;100.00;98215.88;5040664;28;20055;-75
2024/03/01 03:08:33;;;;;;;1.85;0.93;;;;;;;0.66;100.00;98214.25;5040390;28;20032;-75
2024/03/01 03:10:59;;;;;;;3.60;0.70;;;;;;;0.62;100.00;98213.00;5040114;28;20036;-76
2024/03/01 03:13:25;;;;;;;0.60;0.60;;;;;;;0.61;100.00;98204.22;5040258;28;20028;-75
2024/03/01 03:15:50;;;;;;;0.50;0.50;;;;;;;0.61;100.00;98206.88;5073388;28;20039;-75
2024/03/01 03:18:16;;;;;;;0.77;0.77;;;;;;;0.56;100.00;98206.56;5040128;28;20024;-76
2024/03/01 03:20:41;;;;;;;0.57;0.57;;;;;;;0.53;100.00;98200.78;5056247;28;20028;-75
2024/03/01 03:23:08;;;;;;;0.68;0.68;;;;;;;0.59;100.00;98190.34;5040125;28;20032;-75
2024/03/01 03:25:36;;;;;;;2.50;1.15;;;;;;;0.63;100.00;98191.63;5072983;28;20021;-75
2024/03/01 03:28:02;;;;;;;0.80;0.80;;;;;;;0.59;100.00;98200.94;5040301;28;20032;-75
2024/03/01 03:30:28;;;;;;;1.95;0.68;;;;;;;0.43;100.00;98187.81;5056302;28;20025;-75
2024/03/01 03:32:54;;;;;;;1.27;1.17;;;;;;;0.33;100.00;98190.69;5056264;28;20055;-75
2024/03/01 03:35:20;;;;;;;0.50;0.50;;;;;;;0.20;100.00;98185.13;5072855;28;20056;-75
2024/03/01 03:37:45;;;;;;;0.70;0.70;;;;;;;0.04;100.00;98177.28;5040075;28;20489;-75
2024/03/01 03:40:15;;;;;;;0.90;0.70;;;;;;;-0.07;100.00;98184.59;5040318;28;20401;-75
2024/03/01 03:42:41;;;;;;;0.50;0.50;;;;;;;-0.07;100.00;98184.59;5040160;28;20043;-75
2024/03/01 03:45:08;;;;;;;2.05;0.80;;;;;;;-0.07;100.00;98189.88;5072484;28;20425;-75
2024/03/01 03:47:36;;;;;;;0.50;0.50;;;;;;;-0.04;100.00;98200.09;5056328;28;20028;-75
2024/03/01 03:50:06;;;;;;;0.50;0.50;;;;;;;-0.03;100.00;98196.47;5040028;28;20036;-76
2024/03/01 03:52:35;;;;;;;0.60;0.60;;;;;;;-0.05;100.00;98193.16;5072988;28;20016;-75
2024/03/01 03:55:04;;;;;;;1.40;0.85;;;;;;;-0.02;100.00;98192.81;5055966;28;20021;-75
2024/03/01 03:57:34;;;;;;;0.73;0.73;;;;;;;-0.15;100.00;98187.25;5072370;28;20032;-75
2024/03/01 04:00:01;;;;;;;10.05;1.42;;;;;;;-0.29;100.00;98185.31;5056520;28;20032;-76
2024/03/01 04:02:27;;;;;;;0.70;0.70;;;;;;;-0.40;100.00;98183.03;5072809;28;20025;-75
2024/03/01 04:04:53;;;;;;;0.65;0.65;;;;;;;-0.55;100.00;98175.00;5039500;28;20039;-75
2024/03/01 04:07:18;;;;;;;0.73;0.70;;;;;;;-0.68;100.00;98178.16;5039446;28;20424;-75
2024/03/01 04:09:44;;;;;;;0.50;0.50;;;;;;;-0.81;100.00;98173.38;5056035;28;20037;-75
2024/03/01 04:12:09;;;;;;;4.57;0.77;;;;;;;-0.93;100.00;98175.56;5039581;28;20028;-75
2024/03/01 04:14:35;;;;;;;0.63;0.63;;;;;;;-0.90;100.00;98179.66;5039139;28;20052;-75
2024/03/01 04:17:01;;;;;;;1.35;0.98;;;;;;;-0.90;100.00;98169.09;5039927;28;20036;-75
2024/03/01 04:19:27;;;;;;;1.02;1.02;;;;;;;-0.95;100.00;98169.63;5039883;28;20358;-75
2024/03/01 04:21:52;;;;;;;1.70;1.17;;;;;;;-1.03;100.00;98163.50;5039617;28;20039;-75
2024/03/01 04:24:19;;;;;;;3.80;0.75;;;;;;;-1.21;100.00;98158.41;5055898;28;20029;-75
2024/03/01 04:26:45;;;;;;;1.02;0.93;;;;;;;-1.34;100.00;98161.53;5055983;28;20039;-75
2024/03/01 04:29:11;;;;;;;3.60;0.80;;;;;;;-1.46;100.00;98157.56;5055461;28;20028;-75
2024/03/01 04:31:38;;;;;;;0.50;0.50;;;;;;;-1.52;100.00;98147.69;5039109;28;20024;-75
2024/03/01 04:34:06;;;;;;;0.75;0.75;;;;;;;-1.41;100.00;98156.06;5055610;28;20031;-75
2024/03/01 04:36:32;;;;;;;0.50;0.50;;;;;;;-1.40;100.00;98155.09;5039668;28;20060;-75
2024/03/01 04:38:58;;;;;;;0.50;0.50;;;;;;;-1.44;100.00;98147.69;5022730;28;20115;-75
2024/03/01 04:41:24;;;;;;;0.70;0.70;;;;;;;-1.40;100.00;98143.75;5022777;28;20514;-76
2024/03/01 04:43:49;;;;;;;0.70;0.70;;;;;;;-1.39;100.00;98150.66;5039164;28;20025;-75
2024/03/01 04:46:15;;;;;;;0.93;0.85;;;;;;;-1.48;100.00;98147.19;5039721;28;20036;-76
2024/03/01 04:48:41;;;;;;;1.13;0.80;;;;;;;-1.35;100.00;98147.53;5072098;28;20473;-75
2024/03/01 04:51:12;;;;;;;0.68;0.68;;;;;;;-1.21;100.00;98142.59;5038990;28;20029;-75
2024/03/01 04:53:39;;;;;;;0.60;0.60;;;;;;;-1.13;100.00;98134.69;5071888;28;20520;-75
2024/03/01 04:56:09;;;;;;;0.50;0.50;;;;;;;-1.11;100.00;98143.25;5038967;28;20106;-75
2024/03/01 04:58:35;;;;;;;0.50;0.50;;;;;;;-1.09;100.00;98143.88;5072095;28;20043;-75
2024/03/01 05:01:01;;;;;;;2.60;1.27;;;;;;;-1.09;100.00;98135.97;5055582;28;20028;-75
2024/03/01 05:03:30;;;;;;;1.02;1.02;;;;;;;-1.08;100.00;98136.81;5038917;28;20123;-75
2024/03/01 05:05:56;;;;;;;0.50;0.50;;;;;;;-1.06;100.00;98134.81;5055800;28;20033;-75
2024/03/01 05:08:23;;;;;;;1.35;0.68;;;;;;;-1.11;100.00;98127.44;5055032;28;20024;-75
2024/03/01 05:10:51;;;;;;;0.50;0.50;;;;;;;-1.07;100.00;98139.28;5071864;28;20025;-74
2024/03/01 05:13:20;;;;;;;0.50;0.50;;;;;;;-0.98;100.00;98132.19;5055741;28;20123;-75
2024/03/01 05:15:47;;;;;;;0.90;0.90;;;;;;;-0.94;100.00;98134.31;5075001;28;20024;-75
2024/03/01 05:18:12;;;;;;;0.55;0.52;;;;;;;-0.99;100.00;98128.72;5058581;28;20032;-74
2024/03/01 05:20:39;;;;;;;1.77;1.10;;;;;;;-1.04;100.00;98133.66;5042418;28;20127;-74
2024/03/01 05:23:05;;;;;;;1.25;0.65;;;;;;;-1.04;100.00;98141.59;5058568;28;20028;-75
2024/03/01 05:25:31;;;;;;;0.50;0.50;;;;;;;-1.03;100.00;98130.06;5058957;28;20040;-74
2024/03/01 05:27:56;;;;;;;5.30;1.25;;;;;;;-1.01;100.00;98120.16;5042233;28;20035;-75
2024/03/01 05:30:23;;;;;;;0.50;0.50;;;;;;;-1.19;100.00;98114.22;5042190;28;20055;-74
2024/03/01 05:32:50;;;;;;;3.50;1.10;;;;;;;-1.28;100.00;98120.50;5058840;28;20483;-75
2024/03/01 05:35:19;;;;;;;0.70;0.70;;;;;;;-1.44;100.00;98119.50;5058293;28;20021;-74
2024/03/01 05:37:46;;;;;;;0.50;0.50;;;;;;;-1.58;100.00;98120.16;5076119;28;20459;-74
2024/03/01 05:40:15;;;;;;;0.50;0.50;;;;;;;-1.73;100.00;98119.97;5074897;28;20024;-74
2024/03/01 05:42:44;;;;;;;0.50;0.50;;;;;;;-1.78;100.00;98131.00;5042037;28;20034;-74
2024/03/01 05:45:11;;;;;;;0.57;0.57;;;;;;;-1.74;100.00;98122.78;5041836;28;20466;-74
2024/03/01 05:47:38;;;;;;;0.50;0.50;;;;;;;-1.59;100.00;98118.50;5058105;28;20074;-74
2024/03/01 05:50:05;;;;;;;0.77;0.77;;;;;;;-1.70;100.00;98106.47;5075037;28;20104;-74
2024/03/01 05:52:32;;;;;;;5.30;0.93;;;;;;;-1.69;100.00;98113.41;5041587;28;20033;-74
2024/03/01 05:54:57;;;;;;;1.08;0.85;;;;;;;-1.69;100.00;98109.94;5058332;28;20024;-74
2024/03/01 05:57:23;;;;;;;8.18;0.82;;;;;;;-1.74;100.00;98112.25;5057941;28;20032;-74
2024/03/01 05:59:50;;;;;;;1.58;0.80;;;;;;;-1.81;100.00;98115.50;5041751;28;20074;-74
2024/03/01 06:02:16;;;;;;;3.88;0.88;;;;;;;-1.85;100.00;98116.84;5057983;28;20025;-74
2024/03/01 06:04:42;;;;;;;2.42;0.70;;;;;;;-1.80;100.00;98111.06;5041501;28;20082;-74
2024/03/01 06:07:08;;;;;;;3.67;1.25;;;;;;;-1.87;100.00;98125.88;5058272;28;20086;-74
2024/03/01 06:09:34;;;;;;;0.55;0.55;;;;;;;-1.95;100.00;98113.53;5042090;28;20032;-74
2024/03/01 06:12:00;;;;;;;0.55;0.55;;;;;;;-2.03;100.00;98114.31;5041241;28;20347;-74
2024/03/01 06:14:25;;;;;;;2.08;0.80;;;;;;;-2.11;100.00;98122.19;5041556;28;20127;-74
2024/03/01 06:16:51;;;;;;;2.05;0.80;;;;;;;-2.08;100.00;98111.34;5041443;28;20032;-74
2024/03/01 06:19:17;;;;;;;0.50;0.50;;;;;;;-2.05;100.00;98108.38;5058333;28;20070;-75
2024/03/01 06:21:43;;;;;;;0.50;0.50;;;;;;;-2.03;100.00;98113.50;5041283;28;20033;-74
2024/03/01 06:24:09;;;;;;;2.67;1.42;;;;;;;-2.08;100.00;98107.91;5024787;28;20036;-74
2024/03/01 06:26:35;;;;;;;0.50;0.50;;;;;;;-2.15;100.00;98106.88;5040049;28;20028;-74
2024/03/01 06:29:01;;;;;;;0.80;0.80;;;;;;;-2.24;100.00;98111.31;5041212;28;20043;-74
2024/03/01 06:31:27;;;;;;;6.03;0.75;;;;;;;-2.32;100.00;98111.28;5040896;28;20032;-74
2024/03/01 06:33:53;;;;;;;1.42;0.82;;;;;;;-2.40;100.00;98109.44;5041014;28;20024;-74
2024/03/01 06:36:18;;;;;;;0.60;0.60;;;;;;;-2.51;100.00;98101.84;5041072;28;20032;-74
2024/03/01 06:38:44;;;;;;;0.70;0.70;;;;;;;-2.55;100.00;98101.31;5041041;28;20131;-74
2024/03/01 06:41:10;;;;;;;0.60;0.60;;;;;;;-2.52;100.00;98105.44;5057051;28;20017;-74
2024/03/01 06:43:35;;;;;;;1.20;0.70;;;;;;;-2.49;100.00;98102.47;5040893;28;20138;-74
2024/03/01 06:46:06;;;;;;;1.00;1.00;;;;;;;-2.36;100.00;98105.47;5040845;28;20034;-74
2024/03/01 06:48:33;;;;;;;0.85;0.73;;;;;;;-2.35;100.00;98114.22;5073972;28;20043;-74
2024/03/01 06:50:59;;;;;;;0.63;0.63;;;;;;;-2.39;100.00;98107.63;5024182;28;20028;-74
2024/03/01 06:53:26;;;;;;;0.68;0.68;;;;;;;-2.37;100.00;98114.38;5040677;28;20044;-73
2024/03/01 06:55:52;;;;;;;0.70;0.70;;;;;;;-2.32;100.00;98113.91;5056765;28;20095;-74
2024/03/01 06:58:17;;;;;;;0.65;0.65;;;;;;;-2.28;100.00;98113.41;5040670;28;20032;-74
2024/03/01 07:00:46;;;;;;;2.75;0.80;;;;;;;-2.27;100.00;98112.44;5040566;28;20094;-74
2024/03/01 07:03:15;;;;;;;0.88;0.88;;;;;;;-2.33;100.00;98107.81;5073549;28;20033;-74
2024/03/01 07:05:41;;;;;;;0.60;0.60;;;;;;;-2.36;100.00;98109.94;5024359;28;20485;-74
2024/03/01 07:08:08;;;;;;;0.52;0.52;;;;;;;-2.48;100.00;98102.31;5073472;28;20032;-74
2024/03/01 07:10:33;;;;;;;0.70;0.70;;;;;;;-2.58;100.00;98101.63;5040394;28;20109;-74
2024/03/01 07:12:59;;;;;;;9.82;1.20;;;;;;;-2.63;100.00;98100.44;5040326;28;20506;-74
2024/03/01 07:15:27;;;;;;;2.13;1.25;;;;;;;-2.63;100.00;98109.16;5040203;28;20125;-74
2024/03/01 07:17:53;;;;;;;2.53;1.15;;;;;;;-2.54;100.00;98102.13;5057031;28;20024;-74
2024/03/01 07:20:19;;;;;;;0.50;0.50;;;;;;;-2.52;100.00;98103.63;5040788;28;20470;-74
2024/03/01 07:22:45;;;;;;;0.77;0.77;;;;;;;-2.42;100.00;98103.50;5040015;28;20466;-74
2024/03/01 07:25:11;;;;;;;1.88;0.88;;;;;;;-2.29;100.00;98097.78;5056748;28;20028;-74
2024/03/01 07:27:37;;;;;;;0.60;0.60;;;;;;;-2.25;100.00;98096.47;5039941;28;20055;-74
2024/03/01 07:30:04;;;;;;;0.90;0.90;;;;;;;-2.22;100.00;98102.25;5056425;28;20043;-74
2024/03/01 07:32:32;;;;;;;2.25;0.98;;;;;;;-2.22;100.00;98110.16;5056453;28;20040;-74
2024/03/01 07:34:58;;;;;;;1.27;0.75;;;;;;;-2.33;100.00;98113.09;5056923;28;20029;-74
2024/03/01 07:37:24;;;;;;;0.50;0.50;;;;;;;-2.33;100.00;98115.72;5039516;28;20111;-74
2024/03/01 07:39:50;;;;;;;1.00;0.95;;;;;;;-2.26;100.00;98118.53;5040668;28;20040;-74
2024/03/01 07:42:15;;;;;;;1.45;0.93;;;;;;;-2.16;100.00;98121.03;5072578;28;20320;-74
2024/03/01 07:44:41;;;;;;;1.48;1.38;;;;;;;-2.22;100.00;98112.78;5039790;28;20052;-74
2024/03/01 07:47:07;;;;;;;2.20;1.70;;;;;;;-2.24;100.00;98120.03;5039705;28;20473;-74
2024/03/01 07:49:33;;;;;;;1.63;1.52;;;;;;;-2.21;100.00;98118.88;5039694;28;20449;-74
2024/03/01 07:51:58;;;;;;;1.20;1.10;;;;;;;-2.17;100.00;98122.00;5055976;28;20036;-74
2024/03/01 07:54:27;;;;;;;1.50;1.13;;;;;;;-2.15;100.00;98120.84;5039587;28;20127;-74
2024/03/01 07:56:53;;;;;;;3.20;2.05;;;;;;;-1.99;100.00;98112.19;5073305;28;20032;-75
2024/03/01 07:59:19;;;;;;;5.13;1.50;;;;;;;-1.82;100.00;98120.97;5039543;28;20412;-73
2024/03/01 08:01:44;;;;;;;1.63;1.50;;;;;;;-1.73;100.00;98117.34;5039545;28;20115;-74
2024/03/01 08:04:11;;;;;;;3.10;2.33;;;;;;;-1.66;100.00;98120.16;5055958;28;20070;-74
2024/03/01 08:06:38;;;;;;;3.22;2.80;;;;;;;-1.57;100.00;98116.53;5056499;28;20032;-74
2024/03/01 08:09:03;;;;;;;6.45;4.43;;;;;;;-1.48;100.00;98112.94;5072186;28;20527;-74
2024/03/01 08:11:39;;;;;;;4.57;2.47;;;;;;;-1.47;100.00;98116.38;5039216;28;20031;-74
2024/03/01 08:14:07;;;;;;;5.53;3.08;;;;;;;-1.51;100.00;98109.78;5039461;28;20441;-74
2024/03/01 08:16:33;;;;;;;3.15;2.15;;;;;;;-1.61;100.00;98108.16;5072580;28;20446;-74
2024/03/01 08:18:58;;;;;;;3.30;1.92;;;;;;;-1.61;100.00;98105.50;5055837;28;20040;-74
2024/03/01 08:21:25;;;;;;;5.55;2.33;;;;;;;-1.55;100.00;98104.03;5039319;28;20032;-74
2024/03/01 08:23:51;;;;;;;2.58;1.88;;;;;;;-1.39;100.00;98104.03;5055371;28;20038;-74
2024/03/01 08:26:22;;;;;;;6.88;1.77;;;;;;;-1.18;100.00;98100.06;5039194;28;20028;-74
2024/03/01 08:28:48;;;;;;;2.60;2.00;;;;;;;-1.09;100.00;98098.25;5072095;28;20021;-74
2024/03/01 08:31:23;;;;;;;3.10;1.10;;;;;;;-1.02;100.00;98099.22;5038930;28;20028;-74
2024/03/01 08:33:58;;;;;;;1.52;1.42;;;;;;;-0.92;100.00;98094.59;5056222;28;20028;-74
2024/03/01 08:36:24;;;;;;;5.88;2.55;;;;;;;-0.78;100.00;98103.63;5056030;28;20131;-74
2024/03/01 08:38:50;;;;;;;2.08;1.10;;;;;;;-0.74;100.00;98100.50;5022731;28;20469;-74
2024/03/01 08:41:16;;;;;;;1.98;1.15;;;;;;;-0.66;100.00;98104.94;5055675;28;20029;-74
2024/03/01 08:43:42;;;;;;;1.98;1.13;;;;;;;-0.60;100.00;98098.97;5022787;28;20044;-74
2024/03/01 08:46:28;;;;;;;1.50;1.17;;;;;;;-0.48;100.00;98094.97;5039093;28;20024;-74
2024/03/01 08:48:54;;;;;;;1.80;1.40;;;;;;;-0.18;100.00;98089.88;5025016;28;20037;-74
2024/03/01 08:51:19;;;;;;;1.02;1.02;;;;;;;0.16;100.00;98088.69;5042828;28;20524;-74
2024/03/01 08:54:06;;;;;;;0.88;0.80;;;;;;;0.42;100.00;98094.47;5042945;28;20070;-74
2024/03/01 08:56:35;;;;;;;2.67;1.30;;;;;;;0.50;100.00;98095.41;5043142;28;20036;-74
2024/03/01 08:59:25;;;;;;;1.45;1.33;;;;;;;0.78;100.00;98093.84;5076035;28;20127;-74
2024/03/01 09:01:50;;;;;;;1.38;1.27;;;;;;;1.60;100.00;98095.66;5045368;28;20028;-75
2024/03/01 09:04:29;;;;;;;1.90;1.50;;;;;;;1.58;100.00;98089.72;5042720;28;20028;-74
2024/03/01 09:07:13;;;;;;;2.70;1.42;;;;;;;1.61;100.00;98091.19;5059648;28;20119;-75
2024/03/01 09:09:42;;;;;;;2.63;1.13;;;;;;;2.14;100.00;98075.91;5043187;28;20060;-75
2024/03/01 09:12:09;;;;;;;1.25;1.10;;;;;;;3.60;100.00;98086.84;5059309;28;20020;-75
2024/03/01 09:14:34;;;;;;;1.20;1.20;;;;;;;4.55;100.00;98077.13;5059568;28;20071;-75
2024/03/01 09:17:01;;;;;;;1.27;1.17;;;;;;;4.72;100.00;98073.06;5058931;28;20459;-76
2024/03/01 09:19:30;;;;;;;2.92;1.35;;;;;;;4.62;100.00;98064.66;5042347;28;20421;-76
2024/03/01 09:21:56;;;;;;;0.90;0.85;;;;;;;4.54;100.00;98057.69;5042497;28;20509;-75
2024/03/01 09:24:23;;;;;;;1.52;0.75;;;;;;;4.49;100.00;98062.00;5058959;28;20024;-76
2024/03/01 09:26:49;;;;;;;2.50;1.17;;;;;;;4.73;100.00;98057.91;5042229;28;20032;-76
2024/03/01 09:29:44;;;;;;;1.30;1.20;;;;;;;4.37;100.00;98061.78;5058640;28;20090;-76
2024/03/01 09:32:10;;;;;;;1.73;1.20;;;;;;;4.56;100.00;98057.50;5074092;28;20387;-76
2024/03/01 09:34:37;;;;;;;1.27;0.80;;;;;;;4.90;100.00;98053.84;5075255;28;20108;-75
2024/03/01 09:37:07;;;;;;;1.08;0.80;;;;;;;4.08;100.00;98055.78;5058602;28;20513;-76
2024/03/01 09:39:33;;;;;;;0.73;0.73;;;;;;;3.70;100.00;98052.78;5074878;28;20463;-76
2024/03/01 09:42:02;;;;;;;1.50;0.80;;;;;;;3.68;100.00;98057.50;5041547;28;20387;-75
2024/03/01 09:45:07;;;;;;;0.60;0.60;;;;;;;3.98;100.00;98055.34;5058593;28;20089;-75
2024/03/01 09:47:56;;;;;;;4.03;1.02;;;;;;;4.37;100.00;98048.47;5058530;28;20027;-75
2024/03/01 09:50:37;;;;;;;0.60;0.60;;;;;;;4.93;100.00;98052.59;5075038;28;20033;-75
2024/03/01 09:53:15;;;;;;;1.85;1.50;;;;;;;5.88;100.00;98052.97;5075288;28;20040;-76
2024/03/01 09:55:59;;;;;;;6.70;2.70;;;;;;;6.87;100.00;98053.41;5075814;28;20486;-75
2024/03/01 09:58:45;;;;;;;6.32;2.03;;;;;;;7.67;100.00;98040.91;5058618;28;20024;-76
2024/03/01 10:01:18;;;;;;;1.73;1.02;;;;;;;8.13;100.00;98044.84;5042024;28;20037;-75
2024/03/01 10:04:15;;;;;;;2.10;1.27;;;;;;;7.71;100.00;98044.75;5058476;28;20059;-76
2024/03/01 10:07:26;;;;;;;1.45;1.38;;;;;;;7.35;100.00;98047.41;5058182;28;20036;-75
2024/03/01 10:10:11;;;;;;;2.88;1.90;;;;;;;6.44;100.00;98054.16;5020397;28;20033;-75
2024/03/01 10:12:39;;;;;;;2.88;1.20;;;;;;;6.06;100.00;98047.81;5056913;28;20060;-75
2024/03/01 10:15:17;;;;;;;1.00;0.88;;;;;;;5.96;100.00;98047.44;5058032;28;20025;-75
2024/03/01 10:17:56;;;;;;;1.42;1.00;;;;;;;5.62;100.00;98036.06;5041722;28;20039;-75
2024/03/01 10:20:52;;;;;;;0.80;0.80;;;;;;;5.40;100.00;98048.84;5075292;28;20031;-75
2024/03/01 10:23:39;;;;;;;2.65;1.25;;;;;;;4.95;100.00;98045.19;5057752;28;20025;-75
2024/03/01 10:26:05;;;;;;;1.45;1.20;;;;;;;4.47;100.00;98045.41;5057721;28;20033;-75
2024/03/01 10:28:57;;;;;;;1.10;0.90;;;;;;;4.06;100.00;98052.50;5057713;28;20032;-76
2024/03/01 10:31:52;;;;;;;2.42;2.22;;;;;;;3.95;100.00;98047.78;5073741;28;20020;-76
2024/03/01 10:34:45;;;;;;;1.17;0.85;;;;;;;4.02;100.00;98034.47;5041038;28;20094;-75
2024/03/01 10:37:30;;;;;;;0.40;0.40;;;;;;;4.21;100.00;98046.19;5074120;28;20024;-75
2024/03/01 10:39:58;;;;;;;0.90;0.90;;;;;;;4.29;100.00;98046.03;5057628;28;20031;-75
2024/03/01 10:42:27;;;;;;;0.90;0.90;;;;;;;4.20;100.00;98045.38;5057841;28;20029;-75
2024/03/01 10:45:05;;;;;;;3.25;1.13;;;;;;;3.99;100.00;98043.66;5024305;28;20032;-75
2024/03/01 10:47:32;;;;;;;0.50;0.50;;;;;;;3.89;100.00;98059.19;5074178;28;20024;-75
2024/03/01 10:50:20;;;;;;;1.10;0.80;;;;;;;3.65;100.00;98050.72;5040415;28;20020;-75
2024/03/01 10:53:10;;;;;;;0.60;0.60;;;;;;;3.47;100.00;98053.91;5056751;28;20028;-75
2024/03/01 10:55:48;;;;;;;0.60;0.60;;;;;;;3.48;100.00;98054.72;5041644;28;20043;-75
2024/03/01 10:58:18;;;;;;;1.40;1.30;;;;;;;3.36;100.00;98066.91;5040590;28;20052;-75
2024/03/01 11:01:16;;;;;;;1.40;0.70;;;;;;;3.27;100.00;98055.63;5056979;28;20471;-75
2024/03/01 11:03:46;;;;;;;2.03;0.85;;;;;;;3.19;100.00;98061.91;5066101;28;20510;-75
2024/03/01 11:06:20;;;;;;;0.50;0.50;;;;;;;3.21;100.00;98062.53;5073688;28;20105;-75
2024/03/01 11:09:05;;;;;;;0.57;0.57;;;;;;;3.32;100.00;98066.47;5057027;28;20036;-75
2024/03/01 11:11:51;;;;;;;0.50;0.50;;;;;;;3.51;100.00;98070.25;5072985;28;20033;-74
2024/03/01 11:14:17;;;;;;;0.50;0.50;;;;;;;3.51;100.00;98076.38;5056901;28;20024;-75
2024/03/01 11:16:45;;;;;;;0.50;0.50;;;;;;;3.37;100.00;98079.19;5039979;28;20036;-75
2024/03/01 11:19:13;;;;;;;0.50;0.50;;;;;;;3.21;100.00;98075.00;5040206;28;20044;-74
2024/03/01 11:21:45;;;;;;;0.50;0.50;;;;;;;3.21;100.00;98085.63;5056550;28;20039;-75
2024/03/01 11:24:41;;;;;;;0.50;0.50;;;;;;;3.03;100.00;98086.09;5024676;28;20028;-75
2024/03/01 11:27:11;;;;;;;0.50;0.50;;;;;;;2.85;100.00;98094.53;5038860;28;20090;-75
2024/03/01 11:29:51;;;;;;;0.50;0.50;;;;;;;2.75;100.00;98099.34;5072829;28;20409;-75
2024/03/01 11:32:21;;;;;;;0.50;0.50;;;;;;;2.67;100.00;98094.97;5072974;28;20055;-75
2024/03/01 11:35:08;;;;;;;0.50;0.50;;;;;;;2.68;100.00;98087.88;5072936;28;20071;-75
2024/03/01 11:37:57;;;;;;;0.50;0.50;;;;;;;2.77;100.00;98097.31;5040473;28;20052;-75